Time;durP1;ratioP1;P1;durP2;ratioP2;P2;SDS_P1;SDS_P2;PMS_P1;PMS_P2;Temp;Humidity;BMP_temperature;BMP_pressure;BME280_temperature;BME280_humidity;BME280_pressure;Samples;Min_cycle;Max_cycle;Signal;HPM_P1;HPM_P2
2022/12/27 00:01:28;;;;;;;;;0.00;0.00;;;;;4.45;81.16;100453.09;5056445;28;8830;-60
2022/12/27 00:03:56;;;;;;;;;1.00;0.00;;;;;4.41;81.10;100448.91;5056284;28;8831;-59
2022/12/27 00:06:24;;;;;;;;;0.40;0.40;;;;;4.37;80.88;100450.84;5055148;28;8830;-59
2022/12/27 00:08:51;;;;;;;;;0.00;0.00;;;;;4.33;80.68;100443.97;5054080;28;8964;-60
2022/12/27 00:11:19;;;;;;;;;0.00;0.00;;;;;4.29;81.04;100450.34;5055788;28;8842;-60
2022/12/27 00:13:47;;;;;;;;;0.40;0.40;;;;;4.29;80.83;100449.47;5054476;28;8857;-58
2022/12/27 00:16:15;;;;;;;;;1.00;0.00;;;;;4.29;80.84;100444.19;5056188;28;8822;-59
2022/12/27 00:18:43;;;;;;;;;1.00;1.00;;;;;4.29;81.45;100445.06;5056062;28;8834;-60
2022/12/27 00:21:10;;;;;;;;;1.00;1.00;;;;;4.29;81.39;100446.84;5056134;28;8822;-59
2022/12/27 00:23:38;;;;;;;;;0.00;0.00;;;;;4.29;80.97;100455.63;5055407;28;8819;-60
2022/12/27 00:26:06;;;;;;;;;1.80;0.40;;;;;4.30;80.96;100441.50;5055752;28;8829;-60
2022/12/27 00:28:34;;;;;;;;;0.60;0.60;;;;;4.30;81.31;100444.13;5043062;28;8809;-60
2022/12/27 00:31:01;;;;;;;;;0.60;0.60;;;;;4.29;81.48;100446.84;5035990;28;8864;-59
2022/12/27 00:33:29;;;;;;;;;1.00;0.00;;;;;4.31;81.07;100439.69;5035128;28;8828;-57
2022/12/27 00:35:57;;;;;;;;;0.00;0.00;;;;;4.36;80.88;100435.94;5035336;28;8852;-57
2022/12/27 00:38:24;;;;;;;;;0.00;0.00;;;;;4.40;80.54;100445.41;5035721;28;8983;-59
2022/12/27 00:40:53;;;;;;;;;0.40;0.40;;;;;4.41;80.95;100451.56;5035973;28;8975;-60
2022/12/27 00:43:20;;;;;;;;;1.00;1.00;;;;;4.42;81.17;100440.06;5035851;28;8824;-60
2022/12/27 00:45:48;;;;;;;;;0.00;0.00;;;;;4.42;80.62;100437.44;5035654;28;8848;-59
2022/12/27 00:48:16;;;;;;;;;0.00;0.00;;;;;4.45;80.74;100445.19;5035783;28;8907;-59
2022/12/27 00:50:44;;;;;;;;;0.80;0.80;;;;;4.46;80.51;100441.63;5035556;28;8848;-60
2022/12/27 00:53:12;;;;;;;;;0.80;0.80;;;;;4.47;80.63;100438.06;5022629;28;8873;-60
2022/12/27 00:55:39;;;;;;;;;0.00;0.00;;;;;4.47;80.77;100444.19;5015753;28;8861;-59
2022/12/27 00:58:07;;;;;;;;;3.00;0.20;;;;;4.47;80.70;100438.06;5023330;28;8824;-59
2022/12/27 01:00:35;;;;;;;;;1.00;1.00;;;;;4.48;80.82;100443.28;5035536;28;8824;-60
2022/12/27 01:03:04;;;;;;;;;0.00;0.00;;;;;4.50;80.87;100444.03;5035407;28;8828;-59
2022/12/27 01:05:32;;;;;;;;;1.00;1.00;;;;;4.52;80.81;100436.94;5034799;28;8856;-59
2022/12/27 01:08:00;;;;;;;;;1.00;0.20;;;;;4.56;81.12;100440.28;5034064;28;8836;-60
2022/12/27 01:10:27;;;;;;;;;0.00;0.00;;;;;4.54;80.49;100442.13;5034165;28;8836;-59
2022/12/27 01:12:55;;;;;;;;;1.00;1.00;;;;;4.53;80.88;100437.78;5034773;28;8817;-60
2022/12/27 01:15:22;;;;;;;;;1.00;1.00;;;;;4.52;80.71;100447.50;5034752;28;8825;-60
2022/12/27 01:17:50;;;;;;;;;1.40;1.40;;;;;4.53;80.81;100445.69;5034626;28;8854;-59
2022/12/27 01:20:18;;;;;;;;;1.80;1.00;;;;;4.54;80.86;100450.03;5034011;28;8902;-60
2022/12/27 01:22:46;;;;;;;;;1.00;1.00;;;;;4.56;81.01;100461.38;5034276;28;8841;-58
2022/12/27 01:25:14;;;;;;;;;0.60;0.60;;;;;4.58;80.97;100470.91;5034091;28;8833;-59
2022/12/27 01:27:42;;;;;;;;;0.80;0.80;;;;;4.59;80.66;100463.88;5034338;28;8825;-59
2022/12/27 01:30:09;;;;;;;;;1.00;0.20;;;;;4.61;81.12;100467.28;5034504;28;8852;-60
2022/12/27 01:32:37;;;;;;;;;1.00;0.80;;;;;4.63;80.59;100471.56;5034304;28;8859;-60
2022/12/27 01:35:04;;;;;;;;;1.00;1.00;;;;;4.66;80.50;100475.84;5034815;28;8846;-60
2022/12/27 01:37:32;;;;;;;;;1.00;1.00;;;;;4.64;81.07;100469.78;5035475;28;8856;-60
2022/12/27 01:40:00;;;;;;;;;1.00;0.60;;;;;4.63;80.96;100478.63;5035185;28;8824;-60
2022/12/27 01:45:13;;;;;;;;;2.60;2.60;;;;;4.64;80.81;100481.16;5034555;28;8860;-60
2022/12/27 01:47:40;;;;;;;;;0.40;0.40;;;;;4.66;80.47;100473.19;5038477;28;8879;-59
2022/12/27 01:50:08;;;;;;;;;1.00;1.00;;;;;4.66;80.57;100473.19;5038223;28;8816;-60
2022/12/27 01:52:36;;;;;;;;;0.20;0.20;;;;;4.65;80.48;100474.97;5038205;28;8831;-59
2022/12/27 01:55:04;;;;;;;;;1.40;1.40;;;;;4.66;80.85;100475.84;5038551;28;8844;-59
2022/12/27 01:57:31;;;;;;;;;1.00;1.00;;;;;4.66;80.98;100475.84;5038716;28;8824;-59
2022/12/27 01:59:59;;;;;;;;;2.20;1.00;;;;;4.67;81.01;100485.44;5038476;28;8947;-60
2022/12/27 02:02:27;;;;;;;;;0.40;0.00;;;;;4.67;80.86;100488.09;5038684;28;8982;-60
2022/12/27 02:04:55;;;;;;;;;1.00;1.00;;;;;4.70;81.11;100493.22;5038806;28;9640;-60
2022/12/27 02:07:23;;;;;;;;;1.00;1.00;;;;;4.74;81.33;100487.75;5038424;28;8860;-59
2022/12/27 02:09:50;;;;;;;;;2.00;0.80;;;;;4.80;81.31;100505.06;5038019;28;8817;-60
2022/12/27 02:12:18;;;;;;;;;0.40;0.00;;;;;4.83;81.09;100495.22;5038522;28;8855;-59
2022/12/27 02:14:46;;;;;;;;;1.20;1.20;;;;;4.85;80.73;100498.63;5038457;28;8829;-60
2022/12/27 02:17:14;;;;;;;;;1.40;1.00;;;;;4.88;80.67;100498.47;5038396;28;8859;-60
2022/12/27 02:19:41;;;;;;;;;0.00;0.00;;;;;4.90;80.73;100507.19;5038573;28;8833;-58
2022/12/27 02:22:09;;;;;;;;;2.60;1.40;;;;;4.96;80.54;100495.47;5038566;28;8817;-60
2022/12/27 02:24:35;;;;;;;;;1.00;1.00;;;;;4.96;80.91;100496.34;5038310;28;8859;-57
2022/12/27 02:27:03;;;;;;;;;0.60;0.40;;;;;4.95;80.92;100505.16;5038201;28;8859;-60
2022/12/27 02:29:31;;;;;;;;;3.00;3.00;;;;;4.96;80.75;100496.34;5037833;28;8905;-60
2022/12/27 02:31:59;;;;;;;;;0.20;0.00;;;;;4.97;80.89;100502.47;5037784;28;8849;-60
2022/12/27 02:34:27;;;;;;;;;0.60;0.60;;;;;4.98;80.85;100491.84;5037487;28;8815;-60
2022/12/27 02:36:54;;;;;;;;;4.20;3.40;;;;;4.99;80.96;100492.69;5038205;28;8821;-60
2022/12/27 02:39:22;;;;;;;;;1.00;1.00;;;;;4.99;80.69;100492.69;5038080;28;8922;-58
2022/12/27 02:53:06;;;;;;;;;1.00;0.20;;;;;4.93;80.95;100495.63;5037799;28;8848;-60
2022/12/27 02:55:34;;;;;;;;;1.00;1.00;;;;;4.93;81.03;100496.47;5037711;28;8839;-57
2022/12/27 02:58:01;;;;;;;;;3.00;3.00;;;;;4.94;81.17;100492.06;5036366;28;8813;-60
2022/12/27 03:03:27;;;;;;;;;2.60;1.80;;;;;4.95;80.96;100507.81;4976375;28;8819;-59
2022/12/27 03:08:36;;;;;;;;;1.00;1.00;;;;;4.96;81.14;100498.13;5036807;28;8844;-60
2022/12/27 03:16:36;;;;;;;;;1.80;1.60;;;;;4.94;81.59;100498.19;5037047;28;8841;-59
2022/12/27 03:19:04;;;;;;;;;1.40;1.00;;;;;4.98;81.19;100498.91;5037127;28;8848;-59
2022/12/27 03:27:02;;;;;;;;;4.00;2.60;;;;;5.10;81.33;100507.06;5037368;28;8837;-59
2022/12/27 03:34:59;;;;;;;;;3.00;2.20;;;;;5.13;81.55;100514.00;5036462;28;8819;-60
2022/12/27 03:40:12;;;;;;;;;3.00;3.00;;;;;5.13;80.94;100508.72;5036946;28;8856;-60
2022/12/27 03:46:32;;;;;;;;;1.00;0.20;;;;;5.16;81.27;100513.84;5036356;28;8851;-60
2022/12/27 03:48:12;;;;;;;;;5.40;3.80;;;;;5.17;81.12;100519.03;5036626;28;8832;-60
2022/12/27 03:50:40;;;;;;;;;2.20;1.00;;;;;5.19;80.95;100518.97;5035801;28;8821;-60
2022/12/27 03:53:08;;;;;;;;;2.20;2.20;;;;;5.21;81.13;100517.09;5036494;28;8817;-60
2022/12/27 03:55:36;;;;;;;;;3.00;2.60;;;;;5.24;81.30;100517.81;5036536;28;8828;-59
2022/12/27 03:58:03;;;;;;;;;1.00;1.00;;;;;5.25;81.18;100529.25;5036563;28;8894;-59
2022/12/27 04:00:31;;;;;;;;;5.20;4.00;;;;;5.24;81.35;100523.09;5036822;28;8914;-59
2022/12/27 04:02:58;;;;;;;;;1.00;1.00;;;;;5.26;81.00;100537.06;5036358;28;9482;-60
2022/12/27 04:05:26;;;;;;;;;1.80;1.20;;;;;5.28;81.29;100527.31;5036563;28;8829;-60
2022/12/27 04:35:27;;;;;;;;;5.60;4.00;;;;;5.25;81.44;100550.38;5035680;28;8889;-60
2022/12/27 04:37:55;;;;;;;;;3.00;3.00;;;;;5.22;81.42;100545.22;5035723;28;8873;-59
2022/12/27 04:56:54;;;;;;;;;3.00;3.00;;;;;5.15;81.99;100565.78;5016027;28;8838;-59
2022/12/27 05:02:07;;;;;;;;;1.40;1.00;;;;;5.18;81.41;100560.34;5015709;28;8843;-60
2022/12/27 05:04:35;;;;;;;;;1.00;1.00;;;;;5.17;82.08;100563.06;5015444;28;8844;-58
2022/12/27 05:13:58;;;;;;;;;4.80;4.00;;;;;5.16;82.16;100561.38;5015538;28;8835;-60
2022/12/27 05:15:20;;;;;;;;;1.00;1.00;;;;;5.25;81.70;100572.31;5015835;28;8933;-59
2022/12/27 05:17:48;;;;;;;;;3.00;3.00;;;;;5.25;81.72;100567.03;5016151;28;8881;-60
2022/12/27 05:20:15;;;;;;;;;4.00;3.40;;;;;5.26;81.85;100568.75;5026334;28;8820;-60
2022/12/27 05:25:35;;;;;;;;;1.00;1.00;;;;;5.30;81.87;100574.75;5039719;28;8832;-60
2022/12/27 05:28:03;;;;;;;;;2.80;2.60;;;;;5.28;81.75;100566.91;5039417;28;8825;-60
2022/12/27 05:30:31;;;;;;;;;1.80;1.40;;;;;5.27;81.96;100575.78;5039408;28;8851;-60
2022/12/27 05:32:59;;;;;;;;;3.80;3.80;;;;;5.26;82.09;100575.81;5039289;28;8833;-60
2022/12/27 05:35:26;;;;;;;;;0.60;0.60;;;;;5.28;81.88;100587.16;5039439;28;8836;-60
2022/12/27 05:37:54;;;;;;;;;1.00;1.00;;;;;5.28;81.50;100600.38;5039048;28;8933;-60
2022/12/27 05:40:22;;;;;;;;;2.60;2.60;;;;;5.32;82.03;100596.66;5039247;28;8844;-60
2022/12/27 05:42:50;;;;;;;;;3.00;1.00;;;;;5.38;81.76;100593.75;5039265;28;8843;-60
2022/12/27 05:45:17;;;;;;;;;3.00;3.00;;;;;5.46;81.47;100604.78;5038845;28;8836;-60
2022/12/27 05:47:45;;;;;;;;;1.00;1.00;;;;;5.53;81.74;100598.28;5038980;28;8922;-60
2022/12/27 05:50:13;;;;;;;;;1.80;1.80;;;;;5.58;81.27;100607.69;5038293;28;8801;-60
2022/12/27 05:52:40;;;;;;;;;3.20;3.20;;;;;5.63;81.49;100594.25;5038460;28;8863;-59
2022/12/27 05:55:08;;;;;;;;;3.00;3.00;;;;;5.65;81.40;100595.88;5038485;28;8823;-60
2022/12/27 05:57:36;;;;;;;;;3.80;3.80;;;;;5.66;81.19;100591.44;5038743;28;8832;-60
2022/12/27 06:00:04;;;;;;;;;4.00;4.00;;;;;5.68;81.12;100608.09;5038556;28;8843;-59
2022/12/27 06:02:32;;;;;;;;;4.80;3.60;;;;;5.72;81.29;100594.66;5038692;28;8825;-60
2022/12/27 06:04:59;;;;;;;;;3.40;3.40;;;;;5.75;81.28;100594.50;5038551;28;8943;-60
2022/12/27 06:07:27;;;;;;;;;2.80;2.60;;;;;5.75;81.27;100596.25;5038888;28;8863;-60
2022/12/27 06:09:55;;;;;;;;;4.20;3.40;;;;;5.76;81.18;100595.34;5038832;28;8909;-60
2022/12/27 06:12:23;;;;;;;;;4.00;3.80;;;;;5.77;81.29;100597.91;5038548;28;8837;-59
2022/12/27 06:14:50;;;;;;;;;2.20;2.20;;;;;5.80;81.16;100602.22;5038338;28;8867;-59
2022/12/27 06:17:18;;;;;;;;;4.00;3.80;;;;;5.83;81.08;100602.91;5038839;28;9522;-60
2022/12/27 06:19:45;;;;;;;;;1.00;0.80;;;;;5.85;80.91;100600.22;5037856;28;8805;-60
2022/12/27 06:22:20;;;;;;;;;3.00;3.00;;;;;5.83;81.63;100604.69;5038175;28;8853;-60
2022/12/27 06:24:48;;;;;;;;;2.60;2.60;;;;;5.83;81.27;100615.25;5038174;28;8837;-60
2022/12/27 06:27:15;;;;;;;;;3.60;3.40;;;;;5.83;81.31;100609.97;5038374;28;9514;-59
2022/12/27 06:29:43;;;;;;;;;1.40;1.00;;;;;5.85;81.59;100610.78;5038149;28;8821;-60
2022/12/27 06:32:11;;;;;;;;;3.00;3.00;;;;;5.87;81.32;100619.47;5037299;28;9014;-60
2022/12/27 06:34:39;;;;;;;;;2.60;2.60;;;;;5.89;81.47;100617.59;5037980;28;8833;-60
2022/12/27 06:37:06;;;;;;;;;3.40;3.20;;;;;5.89;81.13;100618.47;5036758;28;8871;-59
2022/12/27 06:39:34;;;;;;;;;3.80;3.00;;;;;5.89;81.14;100620.25;5036462;28;8848;-60
2022/12/27 06:42:02;;;;;;;;;4.00;4.00;;;;;5.87;81.24;100628.28;5036850;28;8855;-60
2022/12/27 06:44:29;;;;;;;;;3.80;3.20;;;;;5.86;81.25;100617.78;5037019;28;8836;-60
2022/12/27 06:46:57;;;;;;;;;3.20;3.00;;;;;5.87;81.22;100625.63;5037271;28;9526;-59
2022/12/27 06:49:25;;;;;;;;;3.00;2.60;;;;;5.90;80.89;100621.97;5036591;28;8832;-59
2022/12/27 06:51:53;;;;;;;;;3.40;3.20;;;;;5.92;81.48;100639.44;5036760;28;8816;-59
2022/12/27 06:54:26;;;;;;;;;3.00;1.00;;;;;5.94;81.22;100628.81;5036811;28;8863;-57
2022/12/27 06:56:55;;;;;;;;;3.00;3.00;;;;;5.96;81.51;100629.59;5037255;28;8873;-60
2022/12/27 06:59:23;;;;;;;;;1.00;1.00;;;;;5.97;81.44;100639.22;5037167;28;8821;-60
2022/12/27 07:01:50;;;;;;;;;0.00;0.00;;;;;5.97;81.08;100647.16;5037125;28;8832;-60
2022/12/27 07:04:18;;;;;;;;;3.00;3.00;;;;;5.97;80.89;100640.09;5036840;28;8840;-60
2022/12/27 07:06:48;;;;;;;;;3.00;1.80;;;;;5.99;81.20;100659.38;5036904;28;8843;-60
2022/12/27 07:09:15;;;;;;;;;3.00;3.00;;;;;5.99;80.98;100646.16;5036976;28;8859;-60
2022/12/27 07:11:44;;;;;;;;;6.00;3.80;;;;;5.98;81.13;100649.72;5037280;28;8821;-59
2022/12/27 07:14:12;;;;;;;;;5.60;4.80;;;;;5.98;81.06;100649.72;5036546;28;8862;-60
2022/12/27 07:16:39;;;;;;;;;3.80;3.40;;;;;5.98;80.99;100654.16;5035993;28;8871;-60
2022/12/27 07:19:07;;;;;;;;;3.40;3.40;;;;;5.98;80.88;100657.66;5035834;28;8875;-60
2022/12/27 07:21:35;;;;;;;;;1.40;1.00;;;;;5.99;81.25;100655.88;5035795;28;8840;-60
2022/12/27 07:24:03;;;;;;;;;3.00;3.00;;;;;5.98;81.00;100670.00;5036109;28;8837;-60
2022/12/27 07:26:30;;;;;;;;;3.80;3.20;;;;;5.97;81.19;100678.88;5035716;28;8867;-60
2022/12/27 07:28:58;;;;;;;;;2.60;2.60;;;;;5.96;81.14;100674.53;5036075;28;8840;-58
2022/12/27 07:31:28;;;;;;;;;4.60;4.60;;;;;5.96;81.14;100672.75;5036429;28;8825;-59
2022/12/27 07:33:56;;;;;;;;;1.80;1.80;;;;;5.97;80.77;100679.75;5036513;28;8840;-60
2022/12/27 07:36:24;;;;;;;;;1.00;1.00;;;;;5.97;81.37;100670.94;5037140;28;8881;-60
2022/12/27 07:38:51;;;;;;;;;3.80;3.20;;;;;5.92;81.10;100686.19;5036651;28;8837;-57
2022/12/27 07:41:19;;;;;;;;;5.20;4.00;;;;;5.87;81.30;100683.78;5036477;28;8832;-60
2022/12/27 07:43:47;;;;;;;;;1.00;1.00;;;;;5.84;81.54;100688.34;5036019;28;9502;-59
2022/12/27 07:46:14;;;;;;;;;2.20;2.20;;;;;5.81;81.95;100683.19;5035371;28;8855;-60
2022/12/27 07:48:42;;;;;;;;;4.00;3.80;;;;;5.80;81.67;100694.69;5035676;28;8848;-60
2022/12/27 07:51:10;;;;;;;;;3.80;3.60;;;;;5.83;81.59;100699.81;5036109;28;8887;-60
2022/12/27 07:53:37;;;;;;;;;3.00;1.00;;;;;5.86;81.37;100707.63;5035878;28;8840;-60
2022/12/27 07:56:05;;;;;;;;;3.00;2.20;;;;;5.87;81.63;100710.19;5036168;28;8841;-60
2022/12/27 07:58:33;;;;;;;;;6.00;4.00;;;;;5.90;81.60;100717.09;5035742;28;8829;-60
2022/12/27 08:01:01;;;;;;;;;2.20;2.20;;;;;5.93;81.67;100715.16;5035404;28;8845;-60
2022/12/27 08:03:29;;;;;;;;;3.20;3.20;;;;;5.96;81.21;100712.41;5034855;28;8813;-59
2022/12/27 08:05:57;;;;;;;;;3.00;3.00;;;;;6.01;81.02;100714.81;5035468;28;8836;-60
2022/12/27 08:08:24;;;;;;;;;3.80;3.20;;;;;6.03;80.72;100721.75;5035036;28;8840;-59
2022/12/27 08:10:52;;;;;;;;;0.00;0.00;;;;;6.06;81.40;100712.81;5035071;28;8857;-60
2022/12/27 08:13:20;;;;;;;;;0.00;0.00;;;;;6.04;81.11;100712.00;5035413;28;9737;-59
2022/12/27 08:15:48;;;;;;;;;3.40;3.40;;;;;6.04;81.08;100722.56;5034510;28;8828;-59
2022/12/27 08:18:16;;;;;;;;;3.40;3.40;;;;;6.01;81.35;100728.88;5034431;28;8840;-62
2022/12/27 08:20:44;;;;;;;;;3.00;3.00;;;;;5.99;81.17;100725.44;5034624;28;8844;-60
2022/12/27 08:23:11;;;;;;;;;3.40;3.20;;;;;5.97;81.31;100731.72;5034840;28;8856;-60
2022/12/27 08:25:39;;;;;;;;;4.20;3.40;;;;;5.92;81.02;100737.25;5034953;28;8840;-60
2022/12/27 08:28:15;;;;;;;;;4.00;3.00;;;;;5.88;81.13;100737.47;5034689;28;9789;-60
2022/12/27 08:30:43;;;;;;;;;3.60;3.60;;;;;5.83;81.39;100728.88;5033872;28;8817;-60
2022/12/27 08:33:11;;;;;;;;;1.80;0.60;;;;;5.78;81.73;100725.59;5035032;28;8954;-59
2022/12/27 08:35:39;;;;;;;;;2.80;2.80;;;;;5.77;81.72;100735.31;5035233;28;8836;-60
2022/12/27 08:38:22;;;;;;;;;3.00;3.00;;;;;5.74;82.14;100730.16;5035161;28;8836;-59
2022/12/27 08:40:50;;;;;;;;;1.00;1.00;;;;;5.73;81.69;100736.38;5035430;28;8922;-60
2022/12/27 08:43:18;;;;;;;;;3.00;2.20;;;;;5.75;81.54;100725.72;5035071;28;8836;-60
2022/12/27 08:45:45;;;;;;;;;2.60;2.60;;;;;5.80;81.84;100729.91;5035529;28;8852;-60
2022/12/27 08:48:14;;;;;;;;;3.80;3.60;;;;;5.83;81.72;100727.13;5035306;28;8859;-59
2022/12/27 08:50:41;;;;;;;;;3.00;3.00;;;;;5.84;81.98;100728.81;5034138;28;8951;-59
2022/12/27 08:53:09;;;;;;;;;1.00;1.00;;;;;5.87;82.06;100741.03;5034299;28;8829;-60
2022/12/27 08:55:37;;;;;;;;;3.40;2.20;;;;;5.94;81.48;100737.19;5036519;28;8986;-58
2022/12/27 08:58:05;;;;;;;;;1.00;1.00;;;;;6.00;81.24;100739.53;5039032;28;8855;-60
2022/12/27 09:00:42;;;;;;;;;2.60;2.60;;;;;5.99;81.62;100743.13;5038810;28;8934;-60
2022/12/27 09:03:09;;;;;;;;;3.20;3.00;;;;;6.01;81.30;100742.09;5039375;28;8866;-60
2022/12/27 09:05:37;;;;;;;;;3.20;2.60;;;;;6.09;81.15;100747.88;5039151;28;8833;-60
2022/12/27 09:08:08;;;;;;;;;1.00;1.00;;;;;6.13;80.92;100751.19;5038431;28;8848;-60
2022/12/27 09:10:36;;;;;;;;;3.40;3.00;;;;;6.12;81.30;100758.28;5038482;28;8813;-60
2022/12/27 09:13:04;;;;;;;;;3.00;3.00;;;;;6.17;81.41;100745.72;5038253;28;8841;-60
2022/12/27 09:15:32;;;;;;;;;3.20;1.00;;;;;6.21;81.03;100759.66;5038479;28;8840;-58
2022/12/27 09:18:01;;;;;;;;;3.00;3.00;;;;;6.21;80.74;100751.72;5038179;28;9624;-60
2022/12/27 09:20:29;;;;;;;;;3.00;3.00;;;;;6.23;80.74;100753.31;5038074;28;8829;-60
2022/12/27 09:22:57;;;;;;;;;2.20;1.40;;;;;6.27;80.94;100756.69;5037775;28;8858;-60
2022/12/27 09:25:25;;;;;;;;;4.00;4.00;;;;;6.30;81.07;100761.84;5037697;28;8824;-60
2022/12/27 09:27:53;;;;;;;;;3.80;3.00;;;;;6.35;80.79;100765.09;5037968;28;8821;-59
2022/12/27 09:30:21;;;;;;;;;3.80;3.80;;;;;6.37;81.18;100757.97;5036871;28;9534;-59
2022/12/27 09:32:49;;;;;;;;;6.00;5.60;;;;;6.41;80.75;100762.16;5036177;28;8872;-60
2022/12/27 09:35:17;;;;;;;;;1.00;1.00;;;;;6.45;80.61;100761.09;5036293;28;8963;-61
2022/12/27 09:37:45;;;;;;;;;3.00;3.00;;;;;6.48;80.47;100771.50;5036373;28;8832;-60
2022/12/27 09:40:13;;;;;;;;;0.20;0.20;;;;;6.53;80.52;100767.69;5036282;28;8859;-60
2022/12/27 09:42:41;;;;;;;;;3.40;1.00;;;;;6.62;80.46;100766.38;5035329;28;8942;-60
2022/12/27 09:45:29;;;;;;;;;1.00;1.00;;;;;6.68;80.33;100768.72;5035212;28;8981;-60
2022/12/27 09:47:57;;;;;;;;;3.00;2.60;;;;;6.76;80.09;100777.13;5035816;28;8988;-58
2022/12/27 09:50:24;;;;;;;;;0.40;0.40;;;;;6.78;80.00;100764.66;5036486;28;8913;-59
2022/12/27 09:52:52;;;;;;;;;3.80;3.00;;;;;6.82;79.97;100769.72;5036522;28;8847;-60
2022/12/27 09:55:20;;;;;;;;;3.00;1.00;;;;;6.90;79.79;100772.00;5037079;28;8840;-60
2022/12/27 09:57:49;;;;;;;;;4.80;4.00;;;;;7.06;79.56;100764.97;5037423;28;8844;-59
2022/12/27 10:00:18;;;;;;;;;3.80;2.60;;;;;7.17;79.64;100762.59;5037393;28;8840;-60
2022/12/27 10:03:01;;;;;;;;;3.00;3.00;;;;;7.20;78.99;100763.28;5037510;28;8859;-60
2022/12/27 10:05:29;;;;;;;;;1.00;1.00;;;;;7.23;79.23;100756.97;5037468;28;8848;-60
2022/12/27 10:07:57;;;;;;;;;3.50;3.50;;;;;7.23;79.08;100767.56;5036472;28;8979;-60
2022/12/27 10:10:25;;;;;;;;;1.00;1.00;;;;;7.21;79.39;100765.00;5037047;28;8838;-60
2022/12/27 10:12:53;;;;;;;;;1.00;1.00;;;;;7.25;79.29;100760.38;5036381;28;8817;-60
2022/12/27 10:15:21;;;;;;;;;3.00;3.00;;;;;7.24;79.51;100759.56;5036441;28;8852;-59
2022/12/27 10:17:48;;;;;;;;;1.80;1.80;;;;;7.27;79.52;100761.19;5036606;28;8871;-60
2022/12/27 10:20:20;;;;;;;;;3.50;2.50;;;;;7.35;79.72;100762.47;5036592;28;8852;-60
2022/12/27 10:22:48;;;;;;;;;1.50;1.50;;;;;7.41;79.21;100759.50;5036862;28;8863;-60
2022/12/27 10:25:16;;;;;;;;;1.50;1.50;;;;;7.43;79.20;100740.88;5036398;28;8848;-60
2022/12/27 10:27:45;;;;;;;;;1.50;1.50;;;;;7.51;79.08;100746.63;5036407;28;8883;-60
2022/12/27 10:30:13;;;;;;;;;2.25;2.00;;;;;7.45;78.88;100741.66;5036850;28;8954;-60
2022/12/27 10:32:40;;;;;;;;;3.00;3.00;;;;;7.56;78.81;100736.59;5036731;28;8870;-60
2022/12/27 10:35:09;;;;;;;;;0.75;0.00;;;;;7.95;77.86;100741.44;5036620;28;8982;-60
2022/12/27 10:37:37;;;;;;;;;0.00;0.00;;;;;8.25;77.24;100734.41;5036264;28;8860;-60
2022/12/27 10:40:06;;;;;;;;;1.00;1.00;;;;;8.48;76.70;100733.06;5036208;28;8918;-60
2022/12/27 10:42:36;;;;;;;;;0.67;0.67;;;;;8.80;76.72;100737.34;5035368;28;8864;-58
2022/12/27 10:45:04;;;;;;;;;1.00;1.00;;;;;8.99;76.28;100741.47;5034768;28;8849;-60
2022/12/27 10:47:32;;;;;;;;;3.75;3.75;;;;;9.17;76.08;100736.81;5034945;28;8845;-60
2022/12/27 10:50:00;;;;;;;;;3.00;3.00;;;;;9.10;75.69;100740.78;5035951;28;8909;-56
2022/12/27 10:52:29;;;;;;;;;3.00;1.50;;;;;8.87;75.98;100739.53;5035770;28;8837;-59
2022/12/27 10:54:56;;;;;;;;;2.00;2.00;;;;;8.76;76.83;100744.66;5035762;28;8879;-58
2022/12/27 10:57:24;;;;;;;;;3.00;3.00;;;;;8.87;76.83;100742.19;5035446;28;8983;-59
2022/12/27 10:59:53;;;;;;;;;2.00;2.00;;;;;9.04;76.18;100749.16;5035176;28;8856;-58
2022/12/27 11:02:21;;;;;;;;;3.00;1.00;;;;;9.17;76.70;100747.44;5034166;28;8837;-58
2022/12/27 11:04:49;;;;;;;;;1.00;1.00;;;;;9.26;76.23;100749.56;5035175;28;8840;-59
2022/12/27 11:07:17;;;;;;;;;2.50;1.00;;;;;9.53;75.61;100750.50;5034381;28;9757;-60
2022/12/27 11:09:45;;;;;;;;;3.00;3.00;;;;;9.87;74.60;100753.59;5034757;28;8844;-58
2022/12/27 11:12:17;;;;;;;;;1.00;1.00;;;;;10.12;73.92;100761.75;5035195;28;8846;-59
2022/12/27 11:14:45;;;;;;;;;3.00;3.00;;;;;10.13;73.41;100757.28;5034580;28;8953;-58
2022/12/27 11:17:14;;;;;;;;;3.00;2.50;;;;;10.33;73.44;100752.34;5032743;28;8849;-59
2022/12/27 11:19:41;;;;;;;;;1.50;1.50;;;;;10.38;73.71;100760.03;5033133;28;8875;-60
2022/12/27 11:22:09;;;;;;;;;3.00;2.50;;;;;10.14;73.78;100749.19;5034684;28;8840;-58
2022/12/27 11:24:38;;;;;;;;;3.75;3.75;;;;;9.71;74.38;100757.34;5034622;28;8836;-60
2022/12/27 11:27:06;;;;;;;;;4.00;4.00;;;;;9.47;75.67;100753.53;5034527;28;8867;-60
2022/12/27 11:29:34;;;;;;;;;1.50;1.50;;;;;9.47;74.83;100748.22;5034828;28;8857;-58
2022/12/27 11:32:02;;;;;;;;;1.00;1.00;;;;;9.48;75.05;100764.09;5033801;28;8847;-57
2022/12/27 11:34:30;;;;;;;;;3.00;3.00;;;;;9.45;75.10;100758.09;5034844;28;8848;-59
2022/12/27 11:36:58;;;;;;;;;3.00;3.00;;;;;9.46;75.20;100758.00;5035067;28;8871;-59
2022/12/27 11:39:26;;;;;;;;;3.25;3.00;;;;;9.51;74.80;100769.22;5034161;28;9909;-57
2022/12/27 11:41:55;;;;;;;;;1.00;1.00;;;;;9.28;76.04;100766.25;5033746;28;8856;-58
2022/12/27 11:44:23;;;;;;;;;4.00;3.75;;;;;9.44;75.12;100753.72;5033448;28;8972;-63
2022/12/27 11:46:50;;;;;;;;;3.00;2.00;;;;;9.65;74.88;100763.88;5033427;28;8860;-58
2022/12/27 11:49:25;;;;;;;;;3.00;3.00;;;;;9.52;74.94;100757.63;5033361;28;8938;-61
2022/12/27 11:51:54;;;;;;;;;2.50;2.50;;;;;9.37;75.34;100755.94;5033121;28;8840;-61
2022/12/27 11:54:22;;;;;;;;;3.50;3.00;;;;;9.19;75.29;100753.53;5033432;28;8840;-60
2022/12/27 11:56:50;;;;;;;;;3.50;3.50;;;;;9.26;75.19;100761.03;5033081;28;8848;-60
2022/12/27 11:59:18;;;;;;;;;3.50;3.50;;;;;9.21;75.34;100752.50;5032888;28;8867;-59
2022/12/27 12:01:46;;;;;;;;;2.25;2.00;;;;;9.21;75.54;100754.28;5033880;28;8829;-60
2022/12/27 12:04:14;;;;;;;;;3.25;3.00;;;;;9.24;74.90;100757.63;5033884;28;8904;-60
2022/12/27 12:06:44;;;;;;;;;1.00;1.00;;;;;9.25;74.96;100756.66;5033944;28;8836;-60
2022/12/27 12:09:11;;;;;;;;;0.75;0.75;;;;;9.53;75.13;100751.38;5032925;28;8856;-60
2022/12/27 12:11:39;;;;;;;;;3.75;3.00;;;;;9.89;73.45;100741.06;5033902;28;8824;-60
2022/12/27 12:14:07;;;;;;;;;2.50;2.50;;;;;9.94;73.28;100744.25;5034037;28;8864;-60
2022/12/27 12:16:35;;;;;;;;;1.00;0.25;;;;;9.74;73.09;100752.69;5034985;28;8871;-61
2022/12/27 12:19:04;;;;;;;;;2.50;2.50;;;;;9.45;74.42;100753.66;5034082;28;8914;-60
2022/12/27 12:21:32;;;;;;;;;3.25;3.25;;;;;9.23;74.89;100750.59;5034093;28;8918;-60
2022/12/27 12:24:00;;;;;;;;;3.00;3.00;;;;;9.12;75.04;100736.25;5033673;28;8851;-59
2022/12/27 12:26:29;;;;;;;;;3.00;3.00;;;;;8.99;75.46;100729.97;5033133;28;8844;-60
2022/12/27 12:28:57;;;;;;;;;4.50;4.50;;;;;8.87;75.41;100736.88;5033523;28;8859;-60
2022/12/27 12:31:27;;;;;;;;;5.00;4.00;;;;;8.78;76.30;100733.91;5032763;28;8849;-61
2022/12/27 12:33:55;;;;;;;;;3.00;1.50;;;;;8.65;76.14;100731.13;5032651;28;8886;-60
2022/12/27 12:36:23;;;;;;;;;1.00;1.00;;;;;8.54;76.53;100733.59;5033186;28;8836;-61
2022/12/27 12:38:51;;;;;;;;;3.00;3.00;;;;;8.47;76.78;100732.22;5033578;28;8970;-60
2022/12/27 12:41:19;;;;;;;;;4.00;4.00;;;;;8.41;76.34;100732.59;5034254;28;9598;-60
2022/12/27 12:43:47;;;;;;;;;3.00;2.50;;;;;8.39;76.35;100734.47;5034027;28;8824;-59
2022/12/27 12:46:15;;;;;;;;;4.00;4.00;;;;;8.38;76.90;100740.69;5034354;28;8842;-60
2022/12/27 12:48:43;;;;;;;;;3.50;3.00;;;;;8.31;76.87;100731.41;5034508;28;8852;-60
2022/12/27 12:51:11;;;;;;;;;4.00;3.50;;;;;8.22;76.71;100723.97;5033171;28;8820;-60
2022/12/27 12:53:39;;;;;;;;;4.50;4.50;;;;;8.11;77.08;100710.44;5034288;28;8832;-60
2022/12/27 12:56:07;;;;;;;;;4.00;4.00;;;;;8.02;77.23;100707.44;5032654;28;8833;-60
2022/12/27 12:58:35;;;;;;;;;3.25;3.25;;;;;7.93;77.52;100706.19;5032583;28;8991;-59
2022/12/27 13:01:03;;;;;;;;;3.75;3.00;;;;;7.84;77.69;100695.25;5032290;28;8863;-59
2022/12/27 13:03:31;;;;;;;;;3.00;3.00;;;;;7.77;77.70;100686.78;5031950;28;8841;-59
2022/12/27 13:05:59;;;;;;;;;4.50;3.00;;;;;7.73;77.89;100687.03;5031847;28;8855;-59
2022/12/27 13:08:27;;;;;;;;;2.00;2.00;;;;;7.70;78.14;100685.41;5031746;28;8906;-61
2022/12/27 13:10:55;;;;;;;;;7.00;3.50;;;;;7.70;77.95;100684.56;5032621;28;8833;-59
2022/12/27 13:13:23;;;;;;;;;3.00;3.00;;;;;7.70;78.13;100684.56;5033075;28;8902;-61
2022/12/27 13:15:51;;;;;;;;;4.50;1.00;;;;;7.71;77.86;100686.28;5032751;28;8875;-60
2022/12/27 13:18:20;;;;;;;;;4.00;3.50;;;;;7.73;78.02;100685.25;5032581;28;8895;-61
2022/12/27 13:20:56;;;;;;;;;3.50;3.00;;;;;7.74;77.84;100676.34;5032887;28;8828;-60
2022/12/27 13:23:24;;;;;;;;;2.25;1.50;;;;;7.73;77.68;100663.16;5032276;28;8852;-60